sensor_id;sensor_type;location;lat;lon;timestamp;temperature;humidity
45283;DHT22;31023;44.994;1.796;2023-05-28T00:00:46;18.90;75.50
45283;DHT22;31023;44.994;1.796;2023-05-28T00:03:12;18.90;75.70
45283;DHT22;31023;44.994;1.796;2023-05-28T00:05:38;18.80;75.80
45283;DHT22;31023;44.994;1.796;2023-05-28T00:08:04;18.70;76.40
45283;DHT22;31023;44.994;1.796;2023-05-28T00:10:29;18.60;76.90
45283;DHT22;31023;44.994;1.796;2023-05-28T00:12:55;18.50;77.10
45283;DHT22;31023;44.994;1.796;2023-05-28T00:15:21;18.60;76.90
45283;DHT22;31023;44.994;1.796;2023-05-28T00:17:47;18.60;76.80
45283;DHT22;31023;44.994;1.796;2023-05-28T00:20:13;18.50;77.10
45283;DHT22;31023;44.994;1.796;2023-05-28T00:22:39;18.50;77.60
45283;DHT22;31023;44.994;1.796;2023-05-28T00:25:05;18.40;77.80
45283;DHT22;31023;44.994;1.796;2023-05-28T00:27:31;18.40;77.80
45283;DHT22;31023;44.994;1.796;2023-05-28T00:29:57;18.40;77.70
45283;DHT22;31023;44.994;1.796;2023-05-28T00:32:22;18.40;77.90
45283;DHT22;31023;44.994;1.796;2023-05-28T00:34:48;18.40;78.00
45283;DHT22;31023;44.994;1.796;2023-05-28T00:37:14;18.40;77.90
45283;DHT22;31023;44.994;1.796;2023-05-28T00:39:39;18.40;77.90
45283;DHT22;31023;44.994;1.796;2023-05-28T00:42:06;18.40;77.80
45283;DHT22;31023;44.994;1.796;2023-05-28T00:44:36;18.50;77.60
45283;DHT22;31023;44.994;1.796;2023-05-28T00:47:03;18.50;77.40
45283;DHT22;31023;44.994;1.796;2023-05-28T00:49:29;18.40;77.40
45283;DHT22;31023;44.994;1.796;2023-05-28T00:51:56;18.40;77.60
45283;DHT22;31023;44.994;1.796;2023-05-28T00:54:25;18.30;78.00
45283;DHT22;31023;44.994;1.796;2023-05-28T00:56:53;18.30;78.40
45283;DHT22;31023;44.994;1.796;2023-05-28T00:59:20;18.20;78.40
45283;DHT22;31023;44.994;1.796;2023-05-28T01:01:47;18.30;78.40
45283;DHT22;31023;44.994;1.796;2023-05-28T01:04:13;18.20;78.70
45283;DHT22;31023;44.994;1.796;2023-05-28T01:06:38;18.20;78.80
45283;DHT22;31023;44.994;1.796;2023-05-28T01:09:07;18.10;79.10
45283;DHT22;31023;44.994;1.796;2023-05-28T01:11:34;18.10;79.40
45283;DHT22;31023;44.994;1.796;2023-05-28T01:14:02;17.90;79.90
45283;DHT22;31023;44.994;1.796;2023-05-28T01:16:28;17.90;80.60
45283;DHT22;31023;44.994;1.796;2023-05-28T01:18:54;17.80;80.80
45283;DHT22;31023;44.994;1.796;2023-05-28T01:21:24;17.70;81.20
45283;DHT22;31023;44.994;1.796;2023-05-28T01:23:53;17.70;81.60
45283;DHT22;31023;44.994;1.796;2023-05-28T01:26:19;17.70;81.80
45283;DHT22;31023;44.994;1.796;2023-05-28T01:28:46;17.60;82.00
45283;DHT22;31023;44.994;1.796;2023-05-28T01:31:13;17.60;82.40
45283;DHT22;31023;44.994;1.796;2023-05-28T01:33:39;17.50;82.50
45283;DHT22;31023;44.994;1.796;2023-05-28T01:36:16;17.50;82.90
45283;DHT22;31023;44.994;1.796;2023-05-28T01:38:43;17.40;83.20
45283;DHT22;31023;44.994;1.796;2023-05-28T01:41:11;17.40;83.20
45283;DHT22;31023;44.994;1.796;2023-05-28T01:43:37;17.40;83.40
45283;DHT22;31023;44.994;1.796;2023-05-28T01:46:03;17.30;83.80
45283;DHT22;31023;44.994;1.796;2023-05-28T01:48:29;17.20;84.30
45283;DHT22;31023;44.994;1.796;2023-05-28T01:50:55;17.20;84.70
45283;DHT22;31023;44.994;1.796;2023-05-28T01:53:21;17.20;84.60
45283;DHT22;31023;44.994;1.796;2023-05-28T01:55:46;17.20;84.60
45283;DHT22;31023;44.994;1.796;2023-05-28T01:58:12;17.20;84.80
45283;DHT22;31023;44.994;1.796;2023-05-28T02:00:42;17.20;85.00
45283;DHT22;31023;44.994;1.796;2023-05-28T02:03:11;17.10;85.10
45283;DHT22;31023;44.994;1.796;2023-05-28T02:05:37;17.10;85.10
45283;DHT22;31023;44.994;1.796;2023-05-28T02:08:03;17.10;85.30
45283;DHT22;31023;44.994;1.796;2023-05-28T02:10:29;17.10;85.30
45283;DHT22;31023;44.994;1.796;2023-05-28T02:12:55;17.10;85.10
45283;DHT22;31023;44.994;1.796;2023-05-28T02:15:21;17.10;85.20
45283;DHT22;31023;44.994;1.796;2023-05-28T02:17:47;17.10;85.20
45283;DHT22;31023;44.994;1.796;2023-05-28T02:20:13;17.00;85.60
45283;DHT22;31023;44.994;1.796;2023-05-28T02:22:38;17.00;85.90
45283;DHT22;31023;44.994;1.796;2023-05-28T02:25:04;17.00;85.80
45283;DHT22;31023;44.994;1.796;2023-05-28T02:27:30;16.90;85.90
45283;DHT22;31023;44.994;1.796;2023-05-28T02:29:57;17.00;86.00
45283;DHT22;31023;44.994;1.796;2023-05-28T02:32:22;16.90;86.40
45283;DHT22;31023;44.994;1.796;2023-05-28T02:34:48;16.90;86.70
45283;DHT22;31023;44.994;1.796;2023-05-28T02:37:14;16.70;87.00
45283;DHT22;31023;44.994;1.796;2023-05-28T02:39:40;16.70;87.30
45283;DHT22;31023;44.994;1.796;2023-05-28T02:42:05;16.70;87.30
45283;DHT22;31023;44.994;1.796;2023-05-28T02:44:31;16.70;87.40
45283;DHT22;31023;44.994;1.796;2023-05-28T02:46:57;16.60;87.80
45283;DHT22;31023;44.994;1.796;2023-05-28T02:49:22;16.60;88.00
45283;DHT22;31023;44.994;1.796;2023-05-28T02:51:48;16.60;88.20
45283;DHT22;31023;44.994;1.796;2023-05-28T02:54:14;16.50;88.40
45283;DHT22;31023;44.994;1.796;2023-05-28T02:56:39;16.50;88.30
45283;DHT22;31023;44.994;1.796;2023-05-28T02:59:05;16.50;88.50
45283;DHT22;31023;44.994;1.796;2023-05-28T03:01:31;16.50;88.30
45283;DHT22;31023;44.994;1.796;2023-05-28T03:03:56;16.50;88.30
45283;DHT22;31023;44.994;1.796;2023-05-28T03:06:22;16.50;88.20
45283;DHT22;31023;44.994;1.796;2023-05-28T03:08:48;16.50;88.40
45283;DHT22;31023;44.994;1.796;2023-05-28T03:11:13;16.50;88.60
45283;DHT22;31023;44.994;1.796;2023-05-28T03:13:39;16.40;88.50
45283;DHT22;31023;44.994;1.796;2023-05-28T03:16:05;16.50;88.40
45283;DHT22;31023;44.994;1.796;2023-05-28T03:18:31;16.50;88.40
45283;DHT22;31023;44.994;1.796;2023-05-28T03:20:57;16.50;88.60
45283;DHT22;31023;44.994;1.796;2023-05-28T03:23:23;16.40;88.80
45283;DHT22;31023;44.994;1.796;2023-05-28T03:25:48;16.30;89.30
45283;DHT22;31023;44.994;1.796;2023-05-28T03:28:14;16.30;89.50
45283;DHT22;31023;44.994;1.796;2023-05-28T03:30:40;16.20;89.80
45283;DHT22;31023;44.994;1.796;2023-05-28T03:33:05;16.20;90.00
45283;DHT22;31023;44.994;1.796;2023-05-28T03:35:31;16.20;90.00
45283;DHT22;31023;44.994;1.796;2023-05-28T03:37:57;16.20;90.00
45283;DHT22;31023;44.994;1.796;2023-05-28T03:40:22;16.20;90.00
45283;DHT22;31023;44.994;1.796;2023-05-28T03:42:48;16.20;90.00
45283;DHT22;31023;44.994;1.796;2023-05-28T03:45:14;16.20;90.10
45283;DHT22;31023;44.994;1.796;2023-05-28T03:47:40;16.10;90.10
45283;DHT22;31023;44.994;1.796;2023-05-28T03:50:06;16.10;90.10
45283;DHT22;31023;44.994;1.796;2023-05-28T03:52:32;16.10;90.20
45283;DHT22;31023;44.994;1.796;2023-05-28T03:54:58;16.10;90.10
45283;DHT22;31023;44.994;1.796;2023-05-28T03:57:24;16.10;90.10
45283;DHT22;31023;44.994;1.796;2023-05-28T03:59:49;16.00;90.30
45283;DHT22;31023;44.994;1.796;2023-05-28T04:02:15;16.00;90.30
45283;DHT22;31023;44.994;1.796;2023-05-28T04:04:41;16.10;90.30
45283;DHT22;31023;44.994;1.796;2023-05-28T04:07:06;16.00;90.30
45283;DHT22;31023;44.994;1.796;2023-05-28T04:09:32;16.00;90.30
45283;DHT22;31023;44.994;1.796;2023-05-28T04:11:58;16.00;90.40
45283;DHT22;31023;44.994;1.796;2023-05-28T04:14:24;16.00;90.50
45283;DHT22;31023;44.994;1.796;2023-05-28T04:16:50;16.00;90.60
45283;DHT22;31023;44.994;1.796;2023-05-28T04:19:16;16.00;90.50
45283;DHT22;31023;44.994;1.796;2023-05-28T04:21:42;15.90;90.50
45283;DHT22;31023;44.994;1.796;2023-05-28T04:24:07;15.90;90.70
45283;DHT22;31023;44.994;1.796;2023-05-28T04:26:33;15.80;90.70
45283;DHT22;31023;44.994;1.796;2023-05-28T04:28:59;15.90;90.80
45283;DHT22;31023;44.994;1.796;2023-05-28T04:31:25;15.90;90.70
45283;DHT22;31023;44.994;1.796;2023-05-28T04:33:52;16.10;90.60
45283;DHT22;31023;44.994;1.796;2023-05-28T04:36:19;16.50;90.00
45283;DHT22;31023;44.994;1.796;2023-05-28T04:38:45;16.60;89.50
45283;DHT22;31023;44.994;1.796;2023-05-28T04:41:12;16.70;89.30
45283;DHT22;31023;44.994;1.796;2023-05-28T04:43:40;16.90;88.10
45283;DHT22;31023;44.994;1.796;2023-05-28T04:46:06;17.20;87.00
45283;DHT22;31023;44.994;1.796;2023-05-28T04:48:34;17.50;86.10
45283;DHT22;31023;44.994;1.796;2023-05-28T04:51:00;17.80;84.70
45283;DHT22;31023;44.994;1.796;2023-05-28T04:53:29;17.80;84.30
45283;DHT22;31023;44.994;1.796;2023-05-28T04:55:55;18.00;83.80
45283;DHT22;31023;44.994;1.796;2023-05-28T04:58:21;18.30;82.80
45283;DHT22;31023;44.994;1.796;2023-05-28T05:00:47;18.20;82.40
45283;DHT22;31023;44.994;1.796;2023-05-28T05:03:13;18.20;82.70
45283;DHT22;31023;44.994;1.796;2023-05-28T05:05:40;18.40;82.40
45283;DHT22;31023;44.994;1.796;2023-05-28T05:08:06;18.80;81.20
45283;DHT22;31023;44.994;1.796;2023-05-28T05:10:32;19.30;79.40
45283;DHT22;31023;44.994;1.796;2023-05-28T05:12:58;19.70;77.90
45283;DHT22;31023;44.994;1.796;2023-05-28T05:15:25;19.80;76.90
45283;DHT22;31023;44.994;1.796;2023-05-28T05:17:52;20.10;76.10
45283;DHT22;31023;44.994;1.796;2023-05-28T05:20:18;20.40;75.10
45283;DHT22;31023;44.994;1.796;2023-05-28T05:22:43;20.60;74.80
45283;DHT22;31023;44.994;1.796;2023-05-28T05:25:09;20.90;73.70
45283;DHT22;31023;44.994;1.796;2023-05-28T05:27:35;21.10;72.80
45283;DHT22;31023;44.994;1.796;2023-05-28T05:30:05;21.30;71.80
45283;DHT22;31023;44.994;1.796;2023-05-28T05:32:31;21.60;71.40
45283;DHT22;31023;44.994;1.796;2023-05-28T05:34:57;21.80;71.10
45283;DHT22;31023;44.994;1.796;2023-05-28T05:37:22;22.00;70.10
45283;DHT22;31023;44.994;1.796;2023-05-28T05:39:49;22.30;68.70
45283;DHT22;31023;44.994;1.796;2023-05-28T05:42:14;22.40;68.20
45283;DHT22;31023;44.994;1.796;2023-05-28T05:44:40;22.90;66.70
45283;DHT22;31023;44.994;1.796;2023-05-28T05:47:06;23.10;65.60
45283;DHT22;31023;44.994;1.796;2023-05-28T05:49:31;22.90;65.80
45283;DHT22;31023;44.994;1.796;2023-05-28T05:51:57;23.10;64.90
45283;DHT22;31023;44.994;1.796;2023-05-28T05:54:23;23.70;63.90
45283;DHT22;31023;44.994;1.796;2023-05-28T05:56:48;24.00;63.50
45283;DHT22;31023;44.994;1.796;2023-05-28T05:59:14;24.30;62.20
45283;DHT22;31023;44.994;1.796;2023-05-28T06:01:40;24.30;62.30
45283;DHT22;31023;44.994;1.796;2023-05-28T06:04:05;24.30;61.70
45283;DHT22;31023;44.994;1.796;2023-05-28T06:06:31;24.90;60.60
45283;DHT22;31023;44.994;1.796;2023-05-28T06:08:57;25.10;59.80
45283;DHT22;31023;44.994;1.796;2023-05-28T06:11:23;25.20;59.20
45283;DHT22;31023;44.994;1.796;2023-05-28T06:13:49;25.50;58.90
45283;DHT22;31023;44.994;1.796;2023-05-28T06:16:15;25.70;58.20
45283;DHT22;31023;44.994;1.796;2023-05-28T06:18:41;26.00;57.20
45283;DHT22;31023;44.994;1.796;2023-05-28T06:21:07;26.30;56.30
45283;DHT22;31023;44.994;1.796;2023-05-28T06:23:36;26.80;55.80
45283;DHT22;31023;44.994;1.796;2023-05-28T06:26:01;27.40;53.90
45283;DHT22;31023;44.994;1.796;2023-05-28T06:28:28;27.30;54.20
45283;DHT22;31023;44.994;1.796;2023-05-28T06:30:54;27.40;54.00
45283;DHT22;31023;44.994;1.796;2023-05-28T06:33:20;28.30;52.80
45283;DHT22;31023;44.994;1.796;2023-05-28T06:35:46;28.10;51.90
45283;DHT22;31023;44.994;1.796;2023-05-28T06:38:11;28.30;51.80
45283;DHT22;31023;44.994;1.796;2023-05-28T06:40:37;28.20;51.00
45283;DHT22;31023;44.994;1.796;2023-05-28T06:43:03;28.40;50.80
45283;DHT22;31023;44.994;1.796;2023-05-28T06:45:29;28.50;50.70
45283;DHT22;31023;44.994;1.796;2023-05-28T06:47:54;28.90;49.90
45283;DHT22;31023;44.994;1.796;2023-05-28T06:50:20;29.00;49.80
45283;DHT22;31023;44.994;1.796;2023-05-28T06:52:46;29.60;48.20
45283;DHT22;31023;44.994;1.796;2023-05-28T06:55:12;29.50;48.00
45283;DHT22;31023;44.994;1.796;2023-05-28T06:57:37;29.90;47.50
45283;DHT22;31023;44.994;1.796;2023-05-28T07:00:04;29.80;47.80
45283;DHT22;31023;44.994;1.796;2023-05-28T07:02:38;30.30;46.90
45283;DHT22;31023;44.994;1.796;2023-05-28T07:05:04;30.30;46.10
45283;DHT22;31023;44.994;1.796;2023-05-28T07:07:31;30.90;46.40
45283;DHT22;31023;44.994;1.796;2023-05-28T07:09:57;31.40;45.30
45283;DHT22;31023;44.994;1.796;2023-05-28T07:12:23;32.00;45.20
45283;DHT22;31023;44.994;1.796;2023-05-28T07:14:48;32.40;43.20
45283;DHT22;31023;44.994;1.796;2023-05-28T07:17:14;32.40;43.10
45283;DHT22;31023;44.994;1.796;2023-05-28T07:19:40;32.50;43.30
45283;DHT22;31023;44.994;1.796;2023-05-28T07:22:05;32.30;42.50
45283;DHT22;31023;44.994;1.796;2023-05-28T07:24:31;32.70;42.50
45283;DHT22;31023;44.994;1.796;2023-05-28T07:26:57;33.40;42.00
45283;DHT22;31023;44.994;1.796;2023-05-28T07:29:22;33.60;40.80
45283;DHT22;31023;44.994;1.796;2023-05-28T07:31:48;33.70;41.00
45283;DHT22;31023;44.994;1.796;2023-05-28T07:34:14;33.20;40.50
45283;DHT22;31023;44.994;1.796;2023-05-28T07:36:40;34.40;40.90
45283;DHT22;31023;44.994;1.796;2023-05-28T07:39:05;35.10;40.40
45283;DHT22;31023;44.994;1.796;2023-05-28T07:41:31;35.10;40.10
45283;DHT22;31023;44.994;1.796;2023-05-28T07:43:57;34.80;40.20
45283;DHT22;31023;44.994;1.796;2023-05-28T07:46:22;35.30;40.10
45283;DHT22;31023;44.994;1.796;2023-05-28T07:48:48;35.50;39.40
45283;DHT22;31023;44.994;1.796;2023-05-28T07:51:15;36.20;39.00
45283;DHT22;31023;44.994;1.796;2023-05-28T07:53:41;36.70;38.70
45283;DHT22;31023;44.994;1.796;2023-05-28T07:56:07;36.50;38.70
45283;DHT22;31023;44.994;1.796;2023-05-28T07:58:33;36.60;37.70
45283;DHT22;31023;44.994;1.796;2023-05-28T08:00:59;36.10;37.40
45283;DHT22;31023;44.994;1.796;2023-05-28T08:03:24;36.90;37.60
45283;DHT22;31023;44.994;1.796;2023-05-28T08:05:53;36.90;39.10
45283;DHT22;31023;44.994;1.796;2023-05-28T08:08:19;37.60;37.30
45283;DHT22;31023;44.994;1.796;2023-05-28T08:10:44;37.80;36.60
45283;DHT22;31023;44.994;1.796;2023-05-28T08:13:11;37.30;35.50
45283;DHT22;31023;44.994;1.796;2023-05-28T08:15:36;37.50;36.00
45283;DHT22;31023;44.994;1.796;2023-05-28T08:18:02;38.80;34.60
45283;DHT22;31023;44.994;1.796;2023-05-28T08:20:28;38.50;36.40
45283;DHT22;31023;44.994;1.796;2023-05-28T08:22:55;38.50;35.50
45283;DHT22;31023;44.994;1.796;2023-05-28T08:25:20;39.00;34.10
45283;DHT22;31023;44.994;1.796;2023-05-28T08:27:46;38.20;35.30
45283;DHT22;31023;44.994;1.796;2023-05-28T08:30:12;39.20;36.20
45283;DHT22;31023;44.994;1.796;2023-05-28T08:32:38;39.70;34.10
45283;DHT22;31023;44.994;1.796;2023-05-28T08:35:03;40.00;33.20
45283;DHT22;31023;44.994;1.796;2023-05-28T08:37:29;39.90;32.30
45283;DHT22;31023;44.994;1.796;2023-05-28T08:39:55;39.90;32.80
45283;DHT22;31023;44.994;1.796;2023-05-28T08:42:21;39.90;33.40
45283;DHT22;31023;44.994;1.796;2023-05-28T08:44:46;40.50;32.10
45283;DHT22;31023;44.994;1.796;2023-05-28T08:47:14;40.80;32.30
45283;DHT22;31023;44.994;1.796;2023-05-28T08:49:48;40.50;33.60
45283;DHT22;31023;44.994;1.796;2023-05-28T08:52:16;40.80;34.60
45283;DHT22;31023;44.994;1.796;2023-05-28T08:54:44;41.20;32.80
45283;DHT22;31023;44.994;1.796;2023-05-28T08:57:10;41.70;32.50
45283;DHT22;31023;44.994;1.796;2023-05-28T08:59:36;41.80;32.90
45283;DHT22;31023;44.994;1.796;2023-05-28T09:02:07;41.90;31.90
45283;DHT22;31023;44.994;1.796;2023-05-28T09:04:34;41.50;32.30
45283;DHT22;31023;44.994;1.796;2023-05-28T09:07:00;41.80;33.50
45283;DHT22;31023;44.994;1.796;2023-05-28T09:09:25;41.90;32.40
45283;DHT22;31023;44.994;1.796;2023-05-28T09:11:57;41.90;31.40
45283;DHT22;31023;44.994;1.796;2023-05-28T09:14:23;42.00;31.80
45283;DHT22;31023;44.994;1.796;2023-05-28T09:16:49;42.10;31.70
45283;DHT22;31023;44.994;1.796;2023-05-28T09:19:15;42.10;32.10
45283;DHT22;31023;44.994;1.796;2023-05-28T09:21:55;42.60;31.40
45283;DHT22;31023;44.994;1.796;2023-05-28T09:24:23;42.00;32.40
45283;DHT22;31023;44.994;1.796;2023-05-28T09:26:54;42.40;32.20
45283;DHT22;31023;44.994;1.796;2023-05-28T09:29:22;41.00;33.90
45283;DHT22;31023;44.994;1.796;2023-05-28T09:31:55;41.60;33.60
45283;DHT22;31023;44.994;1.796;2023-05-28T09:34:28;41.50;34.00
45283;DHT22;31023;44.994;1.796;2023-05-28T09:37:04;42.90;30.90
45283;DHT22;31023;44.994;1.796;2023-05-28T09:39:31;43.00;31.10
45283;DHT22;31023;44.994;1.796;2023-05-28T09:42:04;40.50;31.70
45283;DHT22;31023;44.994;1.796;2023-05-28T09:44:35;41.80;32.80
45283;DHT22;31023;44.994;1.796;2023-05-28T09:47:11;42.20;30.90
45283;DHT22;31023;44.994;1.796;2023-05-28T09:49:38;41.10;32.60
45283;DHT22;31023;44.994;1.796;2023-05-28T09:52:04;41.60;32.60
45283;DHT22;31023;44.994;1.796;2023-05-28T09:54:35;40.80;32.10
45283;DHT22;31023;44.994;1.796;2023-05-28T09:57:02;40.80;33.40
45283;DHT22;31023;44.994;1.796;2023-05-28T09:59:31;39.60;33.80
45283;DHT22;31023;44.994;1.796;2023-05-28T10:04:37;41.90;34.00
45283;DHT22;31023;44.994;1.796;2023-05-28T10:07:04;42.90;32.10
45283;DHT22;31023;44.994;1.796;2023-05-28T10:09:32;42.10;32.50
45283;DHT22;31023;44.994;1.796;2023-05-28T10:12:17;40.50;30.30
45283;DHT22;31023;44.994;1.796;2023-05-28T10:14:46;41.60;33.20
45283;DHT22;31023;44.994;1.796;2023-05-28T10:17:12;42.50;33.00
45283;DHT22;31023;44.994;1.796;2023-05-28T10:19:39;42.40;30.70
45283;DHT22;31023;44.994;1.796;2023-05-28T10:22:05;41.40;30.30
45283;DHT22;31023;44.994;1.796;2023-05-28T10:24:32;40.30;32.60
45283;DHT22;31023;44.994;1.796;2023-05-28T10:26:58;41.10;31.80
45283;DHT22;31023;44.994;1.796;2023-05-28T10:29:24;41.20;31.90
45283;DHT22;31023;44.994;1.796;2023-05-28T10:31:59;42.10;31.60
45283;DHT22;31023;44.994;1.796;2023-05-28T10:34:31;39.80;34.20
45283;DHT22;31023;44.994;1.796;2023-05-28T10:37:00;40.50;33.00
45283;DHT22;31023;44.994;1.796;2023-05-28T10:39:39;40.10;33.40
45283;DHT22;31023;44.994;1.796;2023-05-28T10:42:07;37.80;32.20
45283;DHT22;31023;44.994;1.796;2023-05-28T10:45:05;36.40;36.40
45283;DHT22;31023;44.994;1.796;2023-05-28T10:47:37;34.90;38.90
45283;DHT22;31023;44.994;1.796;2023-05-28T10:50:12;34.70;41.00
45283;DHT22;31023;44.994;1.796;2023-05-28T10:52:38;34.40;42.20
45283;DHT22;31023;44.994;1.796;2023-05-28T10:55:05;34.20;41.30
45283;DHT22;31023;44.994;1.796;2023-05-28T10:57:46;33.60;41.10
45283;DHT22;31023;44.994;1.796;2023-05-28T11:00:22;32.70;43.70
45283;DHT22;31023;44.994;1.796;2023-05-28T11:02:51;32.50;41.70
45283;DHT22;31023;44.994;1.796;2023-05-28T11:05:16;32.70;42.00
45283;DHT22;31023;44.994;1.796;2023-05-28T11:07:42;33.10;44.90
45283;DHT22;31023;44.994;1.796;2023-05-28T11:10:10;32.20;43.50
45283;DHT22;31023;44.994;1.796;2023-05-28T11:12:38;32.50;44.10
45283;DHT22;31023;44.994;1.796;2023-05-28T11:15:04;32.80;42.10
45283;DHT22;31023;44.994;1.796;2023-05-28T11:17:45;32.70;41.70
45283;DHT22;31023;44.994;1.796;2023-05-28T11:22:54;32.40;44.30
45283;DHT22;31023;44.994;1.796;2023-05-28T11:25:25;32.00;46.60
45283;DHT22;31023;44.994;1.796;2023-05-28T11:27:52;31.30;45.90
45283;DHT22;31023;44.994;1.796;2023-05-28T11:30:19;31.50;48.90
45283;DHT22;31023;44.994;1.796;2023-05-28T11:32:46;31.10;49.10
45283;DHT22;31023;44.994;1.796;2023-05-28T11:35:13;30.90;47.90
45283;DHT22;31023;44.994;1.796;2023-05-28T11:37:41;30.70;48.20
45283;DHT22;31023;44.994;1.796;2023-05-28T11:40:08;30.70;51.00
45283;DHT22;31023;44.994;1.796;2023-05-28T11:42:46;30.70;46.10
45283;DHT22;31023;44.994;1.796;2023-05-28T11:45:12;30.80;46.20
45283;DHT22;31023;44.994;1.796;2023-05-28T11:47:38;30.40;48.60
45283;DHT22;31023;44.994;1.796;2023-05-28T11:52:33;31.10;47.20
45283;DHT22;31023;44.994;1.796;2023-05-28T11:55:00;31.00;45.10
45283;DHT22;31023;44.994;1.796;2023-05-28T11:57:27;31.10;45.50
45283;DHT22;31023;44.994;1.796;2023-05-28T12:00:08;30.80;45.20
45283;DHT22;31023;44.994;1.796;2023-05-28T12:05:11;30.70;45.60
45283;DHT22;31023;44.994;1.796;2023-05-28T12:07:37;30.80;45.30
45283;DHT22;31023;44.994;1.796;2023-05-28T12:10:11;30.90;48.30
45283;DHT22;31023;44.994;1.796;2023-05-28T12:12:42;30.90;46.40
45283;DHT22;31023;44.994;1.796;2023-05-28T12:15:08;30.40;47.10
45283;DHT22;31023;44.994;1.796;2023-05-28T12:17:40;30.20;46.30
45283;DHT22;31023;44.994;1.796;2023-05-28T12:22:41;30.70;48.40
45283;DHT22;31023;44.994;1.796;2023-05-28T12:25:07;30.80;50.10
45283;DHT22;31023;44.994;1.796;2023-05-28T12:27:34;30.80;47.10
45283;DHT22;31023;44.994;1.796;2023-05-28T12:30:00;30.90;47.90
45283;DHT22;31023;44.994;1.796;2023-05-28T12:32:25;30.80;47.90
45283;DHT22;31023;44.994;1.796;2023-05-28T12:34:52;30.40;49.80
45283;DHT22;31023;44.994;1.796;2023-05-28T12:37:19;30.40;44.70
45283;DHT22;31023;44.994;1.796;2023-05-28T12:39:45;30.80;48.50
45283;DHT22;31023;44.994;1.796;2023-05-28T12:42:11;30.80;46.00
45283;DHT22;31023;44.994;1.796;2023-05-28T12:44:37;31.10;44.40
45283;DHT22;31023;44.994;1.796;2023-05-28T12:47:03;30.30;40.10
45283;DHT22;31023;44.994;1.796;2023-05-28T12:49:29;30.50;40.50
45283;DHT22;31023;44.994;1.796;2023-05-28T12:51:55;31.20;44.30
45283;DHT22;31023;44.994;1.796;2023-05-28T12:54:20;31.00;41.90
45283;DHT22;31023;44.994;1.796;2023-05-28T12:56:46;31.00;42.30
45283;DHT22;31023;44.994;1.796;2023-05-28T12:59:28;31.00;40.70
45283;DHT22;31023;44.994;1.796;2023-05-28T13:01:54;31.20;40.00
45283;DHT22;31023;44.994;1.796;2023-05-28T13:04:23;30.80;37.90
45283;DHT22;31023;44.994;1.796;2023-05-28T13:06:49;31.30;38.90
45283;DHT22;31023;44.994;1.796;2023-05-28T13:09:16;31.60;40.20
45283;DHT22;31023;44.994;1.796;2023-05-28T13:11:42;31.70;40.20
45283;DHT22;31023;44.994;1.796;2023-05-28T13:14:09;31.70;39.00
45283;DHT22;31023;44.994;1.796;2023-05-28T13:16:37;31.10;37.40
45283;DHT22;31023;44.994;1.796;2023-05-28T13:19:06;31.40;40.00
45283;DHT22;31023;44.994;1.796;2023-05-28T13:21:32;31.90;40.20
45283;DHT22;31023;44.994;1.796;2023-05-28T13:24:05;31.70;38.30
45283;DHT22;31023;44.994;1.796;2023-05-28T13:26:33;31.80;39.10
45283;DHT22;31023;44.994;1.796;2023-05-28T13:29:03;31.40;43.70
45283;DHT22;31023;44.994;1.796;2023-05-28T13:31:30;31.60;42.20
45283;DHT22;31023;44.994;1.796;2023-05-28T13:33:55;31.70;43.60
45283;DHT22;31023;44.994;1.796;2023-05-28T13:36:22;31.50;41.40
45283;DHT22;31023;44.994;1.796;2023-05-28T13:38:48;32.00;38.70
45283;DHT22;31023;44.994;1.796;2023-05-28T13:41:15;32.20;38.50
45283;DHT22;31023;44.994;1.796;2023-05-28T13:43:41;31.70;40.60
45283;DHT22;31023;44.994;1.796;2023-05-28T13:46:07;31.60;38.90
45283;DHT22;31023;44.994;1.796;2023-05-28T13:48:34;31.80;39.10
45283;DHT22;31023;44.994;1.796;2023-05-28T13:51:00;31.60;40.20
45283;DHT22;31023;44.994;1.796;2023-05-28T13:53:33;31.60;37.60
45283;DHT22;31023;44.994;1.796;2023-05-28T13:55:59;31.00;35.30
45283;DHT22;31023;44.994;1.796;2023-05-28T13:58:25;30.90;36.70
45283;DHT22;31023;44.994;1.796;2023-05-28T14:00:51;31.20;38.20
45283;DHT22;31023;44.994;1.796;2023-05-28T14:03:17;30.90;40.90
45283;DHT22;31023;44.994;1.796;2023-05-28T14:05:43;30.80;40.90
45283;DHT22;31023;44.994;1.796;2023-05-28T14:08:11;30.60;38.20
45283;DHT22;31023;44.994;1.796;2023-05-28T14:10:37;30.50;37.20
45283;DHT22;31023;44.994;1.796;2023-05-28T14:13:02;30.00;37.00
45283;DHT22;31023;44.994;1.796;2023-05-28T14:15:28;29.80;37.60
45283;DHT22;31023;44.994;1.796;2023-05-28T14:17:54;28.70;43.00
45283;DHT22;31023;44.994;1.796;2023-05-28T14:20:20;27.50;45.60
45283;DHT22;31023;44.994;1.796;2023-05-28T14:22:45;26.80;47.50
45283;DHT22;31023;44.994;1.796;2023-05-28T14:25:11;26.50;48.00
45283;DHT22;31023;44.994;1.796;2023-05-28T14:27:37;26.20;47.80
45283;DHT22;31023;44.994;1.796;2023-05-28T14:30:04;26.00;47.90
45283;DHT22;31023;44.994;1.796;2023-05-28T14:32:30;25.90;48.80
45283;DHT22;31023;44.994;1.796;2023-05-28T14:34:57;26.00;49.30
45283;DHT22;31023;44.994;1.796;2023-05-28T14:37:22;25.60;49.80
45283;DHT22;31023;44.994;1.796;2023-05-28T14:39:49;25.30;49.70
45283;DHT22;31023;44.994;1.796;2023-05-28T14:42:14;25.40;49.80
45283;DHT22;31023;44.994;1.796;2023-05-28T14:44:40;25.40;49.60
45283;DHT22;31023;44.994;1.796;2023-05-28T14:47:06;25.40;50.00
45283;DHT22;31023;44.994;1.796;2023-05-28T14:49:31;25.20;50.20
45283;DHT22;31023;44.994;1.796;2023-05-28T14:51:57;25.20;50.80
45283;DHT22;31023;44.994;1.796;2023-05-28T14:54:23;25.30;49.60
45283;DHT22;31023;44.994;1.796;2023-05-28T14:56:49;25.20;50.10
45283;DHT22;31023;44.994;1.796;2023-05-28T14:59:14;25.30;49.70
45283;DHT22;31023;44.994;1.796;2023-05-28T15:01:40;25.20;50.60
45283;DHT22;31023;44.994;1.796;2023-05-28T15:04:06;25.10;49.90
45283;DHT22;31023;44.994;1.796;2023-05-28T15:06:32;25.30;50.40
45283;DHT22;31023;44.994;1.796;2023-05-28T15:08:58;25.20;48.30
45283;DHT22;31023;44.994;1.796;2023-05-28T15:11:24;25.30;46.90
45283;DHT22;31023;44.994;1.796;2023-05-28T15:13:51;25.40;47.90
45283;DHT22;31023;44.994;1.796;2023-05-28T15:16:17;25.20;46.90
45283;DHT22;31023;44.994;1.796;2023-05-28T15:18:43;25.20;45.70
45283;DHT22;31023;44.994;1.796;2023-05-28T15:21:09;25.10;45.20
45283;DHT22;31023;44.994;1.796;2023-05-28T15:29:48;25.40;45.20
45283;DHT22;31023;44.994;1.796;2023-05-28T15:32:16;25.10;46.00
45283;DHT22;31023;44.994;1.796;2023-05-28T15:34:42;25.10;47.00
45283;DHT22;31023;44.994;1.796;2023-05-28T15:37:07;25.00;47.40
45283;DHT22;31023;44.994;1.796;2023-05-28T15:39:34;24.70;47.80
45283;DHT22;31023;44.994;1.796;2023-05-28T15:42:06;24.80;49.10
45283;DHT22;31023;44.994;1.796;2023-05-28T15:44:34;24.80;49.30
45283;DHT22;31023;44.994;1.796;2023-05-28T15:46:59;24.70;50.60